Time;durP1;ratioP1;P1;durP2;ratioP2;P2;SDS_P1;SDS_P2;PMS_P1;PMS_P2;Temp;Humidity;BMP_temperature;BMP_pressure;BME280_temperature;BME280_humidity;BME280_pressure;Samples;Min_cycle;Max_cycle;Signal;HPM_P1;HPM_P2
2021/12/12 00:00:14;;;;;;;18.37;11.33;;;10.00;98.50;;;;;;5073228;28;20049;-61
2021/12/12 00:03:03;;;;;;;20.08;12.52;;;9.70;99.70;;;;;;5073618;28;20048;-60
2021/12/12 00:05:31;;;;;;;18.23;12.15;;;10.00;99.70;;;;;;5073234;28;20045;-60
2021/12/12 00:07:57;;;;;;;20.48;13.00;;;10.00;99.60;;;;;;5073665;28;20044;-60
2021/12/12 00:10:25;;;;;;;20.58;12.15;;;9.90;98.90;;;;;;5073550;28;20043;-60
2021/12/12 00:12:59;;;;;;;20.48;12.40;;;10.00;99.60;;;;;;5073929;28;20075;-60
2021/12/12 00:15:25;;;;;;;21.98;13.30;;;10.00;99.50;;;;;;5073335;28;20047;-61
2021/12/12 00:17:51;;;;;;;21.20;13.25;;;9.90;99.70;;;;;;5073539;28;20116;-60
2021/12/12 00:20:19;;;;;;;21.27;12.65;;;;;;;;;;5073377;28;20147;-61
2021/12/12 00:22:44;;;;;;;20.92;12.63;;;9.90;99.50;;;;;;5072949;28;20040;-60
2021/12/12 00:25:10;;;;;;;24.63;13.88;;;10.00;98.40;;;;;;5073676;28;20062;-61
2021/12/12 00:27:36;;;;;;;21.60;13.00;;;9.90;99.50;;;;;;5073362;28;20049;-60
2021/12/12 00:30:04;;;;;;;21.50;13.63;;;9.80;99.60;;;;;;5073063;28;20055;-61
2021/12/12 00:32:32;;;;;;;23.25;14.32;;;9.50;99.40;;;;;;5072846;28;20055;-61
2021/12/12 00:35:00;;;;;;;26.67;15.00;;;10.00;99.40;;;;;;5073076;28;20119;-60
2021/12/12 00:37:27;;;;;;;21.77;14.55;;;9.60;99.30;;;;;;5073067;28;20117;-60
2021/12/12 00:39:55;;;;;;;22.08;14.40;;;10.00;98.10;;;;;;5055797;28;20048;-60
2021/12/12 00:42:26;;;;;;;23.05;14.48;;;9.70;99.40;;;;;;5055318;28;20048;-61
2021/12/12 00:44:55;;;;;;;26.83;14.73;;;10.20;98.40;;;;;;5073492;28;20048;-62
2021/12/12 00:47:21;;;;;;;25.55;14.00;;;;;;;;;;5055740;28;20448;-60
2021/12/12 00:49:47;;;;;;;25.00;14.80;;;10.20;99.40;;;;;;5073177;28;20557;-62
2021/12/12 00:52:14;;;;;;;22.27;15.02;;;10.00;98.10;;;;;;5055302;28;20120;-61
2021/12/12 00:54:41;;;;;;;24.48;15.57;;;10.30;98.20;;;;;;5073478;28;20429;-60
2021/12/12 00:57:10;;;;;;;25.30;15.35;;;9.80;98.00;;;;;;5072960;28;20410;-61
2021/12/12 00:59:36;;;;;;;22.00;14.48;;;10.10;99.40;;;;;;5073394;28;20050;-61
2021/12/12 01:02:04;;;;;;;25.42;15.20;;;9.90;99.40;;;;;;5073295;28;20491;-60
2021/12/12 01:04:35;;;;;;;23.98;15.00;;;9.90;99.30;;;;;;5072451;28;20529;-61
2021/12/12 01:07:04;;;;;;;24.40;15.88;;;10.00;99.30;;;;;;5073357;28;20040;-61
2021/12/12 01:09:33;;;;;;;24.67;14.57;;;10.00;99.30;;;;;;5073016;28;20049;-60
2021/12/12 01:12:00;;;;;;;24.67;15.18;;;9.90;99.20;;;;;;5072882;28;20041;-61
2021/12/12 01:14:30;;;;;;;21.75;14.18;;;10.10;99.30;;;;;;5054956;28;20040;-61
2021/12/12 01:17:07;;;;;;;27.75;15.48;;;9.80;98.20;;;;;;5072510;28;20119;-60
2021/12/12 01:19:41;;;;;;;25.40;15.82;;;10.00;99.30;;;;;;5073218;28;20048;-62
2021/12/12 01:22:21;;;;;;;;;;;10.10;98.30;;;;;;5073306;28;20041;-61
2021/12/12 01:24:48;;;;;;;27.35;15.82;;;10.10;99.30;;;;;;5072666;28;19927;-60
2021/12/12 01:27:14;;;;;;;25.25;16.10;;;9.60;99.10;;;;;;5054951;28;20045;-61
2021/12/12 01:29:40;;;;;;;29.02;16.35;;;;;;;;;;5073121;28;20128;-62
2021/12/12 01:32:12;;;;;;;27.73;16.42;;;10.10;99.30;;;;;;5072587;28;20040;-60
2021/12/12 01:34:38;;;;;;;27.77;16.52;;;10.00;99.20;;;;;;5076432;28;20044;-61
2021/12/12 01:39:54;;;;;;;25.88;15.82;;;10.00;99.20;;;;;;5064636;28;20056;-60
2021/12/12 01:42:24;;;;;;;24.42;16.23;;;10.00;99.20;;;;;;5056758;28;20041;-60
2021/12/12 01:44:56;;;;;;;23.83;16.15;;;9.90;97.50;;;;;;5056590;28;20045;-61
2021/12/12 01:47:26;;;;;;;26.38;17.70;;;10.00;99.20;;;;;;5055597;28;20053;-60
2021/12/12 01:49:54;;;;;;;26.27;16.23;;;9.90;98.30;;;;;;5076241;28;20482;-62
2021/12/12 01:52:23;;;;;;;26.00;16.23;;;10.00;99.30;;;;;;5076182;28;20048;-61
2021/12/12 01:54:50;;;;;;;27.02;15.73;;;10.00;99.30;;;;;;5075984;28;20123;-60
2021/12/12 01:57:36;;;;;;;24.80;15.48;;;10.10;99.30;;;;;;5075763;28;20048;-61
2021/12/12 02:00:13;;;;;;;23.58;15.10;;;9.80;98.10;;;;;;5076076;28;20258;-60
2021/12/12 02:02:39;;;;;;;25.15;15.63;;;;;;;;;;5058115;28;20056;-61
2021/12/12 02:05:11;;;;;;;22.08;14.88;;;10.00;99.50;;;;;;5057945;28;20045;-60
2021/12/12 02:07:38;;;;;;;26.20;16.83;;;9.90;98.20;;;;;;5058702;28;20056;-60
2021/12/12 02:10:08;;;;;;;27.20;15.60;;;10.00;99.30;;;;;;5073939;28;20040;-60
2021/12/12 02:12:34;;;;;;;26.48;15.93;;;9.90;99.30;;;;;;5076166;28;20482;-60
2021/12/12 02:15:00;;;;;;;26.42;15.43;;;10.20;99.30;;;;;;5074640;28;20058;-61
2021/12/12 02:17:37;;;;;;;24.92;15.88;;;10.10;99.30;;;;;;5074340;28;20040;-61
2021/12/12 02:20:17;;;;;;;25.75;15.63;;;9.70;99.20;;;;;;5073110;28;20049;-61
2021/12/12 02:36:16;;;;;;;23.92;15.48;;;10.10;98.30;;;;;;5074462;28;20402;-60
2021/12/12 02:38:42;;;;;;;26.50;14.93;;;9.70;98.20;;;;;;5074814;28;20051;-60
2021/12/12 02:41:10;;;;;;;24.67;15.27;;;10.00;99.30;;;;;;5073514;28;20037;-61
2021/12/12 02:43:45;;;;;;;23.73;15.18;;;9.70;99.30;;;;;;5074666;28;20048;-60
2021/12/12 02:46:14;;;;;;;23.40;14.40;;;;;;;;;;5057047;28;20055;-61
2021/12/12 02:48:41;;;;;;;28.17;15.27;;;9.90;99.40;;;;;;5073457;28;20129;-60
2021/12/12 02:51:09;;;;;;;21.25;14.20;;;;;;;;;;5074656;28;20455;-60
2021/12/12 02:53:38;;;;;;;25.33;14.25;;;10.00;99.30;;;;;;5074174;28;20489;-60
2021/12/12 02:56:08;;;;;;;23.15;14.30;;;10.00;97.90;;;;;;5074016;28;20072;-67
2021/12/12 02:58:34;;;;;;;22.23;14.02;;;10.10;99.50;;;;;;5073931;28;20423;-66
2021/12/12 03:01:34;;;;;;;20.67;13.32;;;9.90;98.30;;;;;;5056751;28;20131;-67
2021/12/12 03:04:00;;;;;;;21.77;13.48;;;10.20;99.60;;;;;;5017876;28;20125;-68
2021/12/12 03:06:29;;;;;;;20.70;13.20;;;10.10;99.40;;;;;;5029381;28;20145;-67
2021/12/12 03:09:00;;;;;;;21.10;12.55;;;10.20;99.50;;;;;;5012045;28;20116;-68
2021/12/12 03:11:27;;;;;;;21.95;14.30;;;10.00;99.40;;;;;;5030843;28;20049;-67
2021/12/12 03:13:54;;;;;;;21.23;13.05;;;10.10;99.40;;;;;;5032061;28;20060;-67
2021/12/12 03:16:20;;;;;;;18.75;13.63;;;;;;;;;;5032008;28;20037;-66
2021/12/12 03:18:46;;;;;;;21.38;13.63;;;10.10;98.40;;;;;;5010304;28;20132;-67
2021/12/12 03:21:29;;;;;;;25.35;13.82;;;10.10;99.50;;;;;;5027544;28;20049;-68
2021/12/12 03:23:56;;;;;;;19.97;12.97;;;10.20;98.40;;;;;;5012571;28;20467;-60
2021/12/12 03:26:22;;;;;;;21.73;13.20;;;10.00;99.40;;;;;;5013781;28;20054;-61
2021/12/12 03:28:49;;;;;;;22.70;13.05;;;10.10;99.60;;;;;;5023421;28;20042;-60
2021/12/12 03:31:21;;;;;;;19.45;13.05;;;10.00;99.40;;;;;;5029487;28;20042;-60
2021/12/12 03:33:47;;;;;;;20.83;13.13;;;10.10;99.40;;;;;;5029782;28;20068;-60
2021/12/12 03:36:13;;;;;;;19.05;11.93;;;10.00;99.40;;;;;;5023976;28;20041;-61
2021/12/12 03:38:45;;;;;;;19.00;13.05;;;9.90;98.20;;;;;;5030369;28;20058;-60
2021/12/12 03:41:14;;;;;;;19.00;12.25;;;9.90;98.40;;;;;;5067267;28;20090;-60
2021/12/12 03:43:40;;;;;;;18.92;12.38;;;9.90;99.40;;;;;;5055073;28;20128;-60
2021/12/12 03:46:10;;;;;;;20.52;11.85;;;9.90;99.60;;;;;;5073019;28;20068;-60
2021/12/12 03:48:38;;;;;;;20.90;13.00;;;9.90;97.90;;;;;;5073229;28;20052;-62
2021/12/12 03:51:04;;;;;;;20.40;12.00;;;10.00;99.60;;;;;;5056097;28;20078;-60
2021/12/12 03:53:31;;;;;;;18.08;11.82;;;10.00;99.50;;;;;;5073223;28;20116;-61
2021/12/12 03:55:57;;;;;;;21.00;12.05;;;;;;;;;;5071701;28;20044;-60
2021/12/12 03:58:23;;;;;;;18.95;12.07;;;9.90;99.60;;;;;;5073494;28;20043;-61
2021/12/12 04:01:11;;;;;;;19.98;11.38;;;10.10;98.50;;;;;;5071164;28;20483;-61
2021/12/12 04:03:37;;;;;;;18.95;10.80;;;;;;;;;;5072203;28;20044;-60
2021/12/12 04:06:07;;;;;;;18.55;11.20;;;9.70;99.50;;;;;;5072476;28;20406;-60
2021/12/12 04:08:38;;;;;;;19.83;11.13;;;9.80;98.50;;;;;;5073145;28;20048;-60
2021/12/12 04:11:07;;;;;;;16.42;11.02;;;9.90;99.80;;;;;;5071976;28;20417;-60
2021/12/12 04:13:39;;;;;;;19.35;11.68;;;10.20;99.90;;;;;;5072310;28;20056;-60
2021/12/12 04:16:04;;;;;;;20.40;11.27;;;10.00;99.80;;;;;;5054971;28;20044;-61
2021/12/12 04:18:30;;;;;;;18.15;10.73;;;10.20;99.90;;;;;;5052139;28;20044;-61
2021/12/12 04:20:56;;;;;;;17.15;10.15;;;9.80;99.70;;;;;;5070139;28;20055;-61
2021/12/12 04:23:23;;;;;;;16.15;10.70;;;;;;;;;;5073000;28;20090;-61
2021/12/12 04:25:49;;;;;;;17.75;9.90;;;9.70;98.80;;;;;;5072712;28;20047;-60
2021/12/12 04:28:15;;;;;;;18.60;10.25;;;9.70;99.80;;;;;;5072793;28;20119;-61
2021/12/12 04:30:41;;;;;;;18.75;10.13;;;;;;;;;;5072807;28;20043;-60
2021/12/12 04:33:07;;;;;;;19.23;9.75;;;9.60;99.80;;;;;;5071993;28;20045;-61
2021/12/12 04:35:33;;;;;;;15.90;9.48;;;9.80;98.90;;;;;;5071654;28;20389;-61
2021/12/12 04:37:59;;;;;;;15.60;9.82;;;9.90;98.30;;;;;;5072523;28;20455;-65
2021/12/12 04:40:27;;;;;;;14.68;9.27;;;9.40;99.90;;;;;;5071540;28;20440;-61
2021/12/12 04:42:53;;;;;;;16.90;9.32;;;9.80;99.90;;;;;;5072492;28;20414;-60
2021/12/12 04:45:41;;;;;;;14.68;8.93;;;9.90;99.90;;;;;;5072238;28;20048;-61
2021/12/12 04:51:24;;;;;;;15.35;9.10;;;10.00;99.10;;;;;;5072482;28;20052;-61
2021/12/12 04:53:56;;;;;;;14.88;9.07;;;10.00;99.20;;;;;;5072087;28;20095;-60
2021/12/12 04:56:29;;;;;;;13.60;8.35;;;9.80;98.50;;;;;;5072030;28;20406;-60
2021/12/12 04:59:08;;;;;;;14.32;8.60;;;9.90;99.00;;;;;;5071490;28;20482;-60
2021/12/12 05:01:35;;;;;;;13.38;8.05;;;9.90;99.90;;;;;;5063381;28;20044;-61
2021/12/12 05:04:30;;;;;;;13.00;7.60;;;9.70;99.00;;;;;;5072434;28;20056;-60
2021/12/12 05:07:02;;;;;;;11.30;7.05;;;9.90;99.90;;;;;;5068998;28;20048;-60
2021/12/12 05:09:53;;;;;;;13.75;7.22;;;9.80;99.10;;;;;;5075507;28;20044;-61
2021/12/12 05:12:23;;;;;;;12.65;6.80;;;9.80;99.90;;;;;;5076195;28;20097;-60
2021/12/12 05:14:55;;;;;;;14.02;7.18;;;10.00;99.00;;;;;;5058086;28;20045;-60
2021/12/12 05:17:29;;;;;;;8.70;6.43;;;9.90;99.90;;;;;;5076230;28;20041;-60
2021/12/12 05:19:57;;;;;;;10.40;6.65;;;9.80;99.90;;;;;;5058802;28;20048;-60
2021/12/12 05:22:31;;;;;;;12.32;6.88;;;9.80;99.90;;;;;;5075436;28;20125;-61
2021/12/12 05:24:58;;;;;;;11.73;6.60;;;9.90;99.90;;;;;;5075375;28;20101;-61
2021/12/12 05:27:24;;;;;;;11.13;6.93;;;10.00;99.90;;;;;;5075828;28;20076;-61
2021/12/12 05:29:55;;;;;;;12.38;6.78;;;9.90;99.30;;;;;;5058368;28;20133;-60
2021/12/12 05:32:21;;;;;;;11.43;6.32;;;9.80;99.90;;;;;;5074512;28;20056;-60
2021/12/12 05:34:50;;;;;;;9.98;6.55;;;9.90;99.90;;;;;;5058139;28;20056;-60
2021/12/12 05:37:17;;;;;;;11.45;6.15;;;;;;;;;;5058835;28;20045;-63
2021/12/12 05:39:43;;;;;;;9.98;6.00;;;10.00;99.90;;;;;;5067136;28;20413;-60
2021/12/12 05:42:09;;;;;;;9.60;5.60;;;;;;;;;;5075194;28;20040;-62
2021/12/12 05:44:35;;;;;;;10.05;5.72;;;9.50;99.90;;;;;;5074255;28;20080;-60
2021/12/12 05:47:03;;;;;;;9.93;5.70;;;10.00;99.90;;;;;;5074458;28;20106;-60
2021/12/12 05:49:29;;;;;;;8.15;5.50;;;10.00;99.90;;;;;;5071010;28;20044;-60
2021/12/12 05:51:55;;;;;;;8.10;5.32;;;10.00;99.90;;;;;;5075123;28;20051;-60
2021/12/12 05:54:23;;;;;;;10.98;5.22;;;9.80;99.30;;;;;;5075341;28;20041;-62
2021/12/12 05:56:49;;;;;;;9.13;5.68;;;9.90;99.90;;;;;;5074321;28;20520;-60
2021/12/12 05:59:15;;;;;;;7.93;4.72;;;10.00;99.90;;;;;;5058023;28;20029;-60
2021/12/12 06:01:41;;;;;;;11.05;5.20;;;;;;;;;;5075107;28;20108;-60
2021/12/12 06:04:07;;;;;;;7.28;4.82;;;10.00;99.90;;;;;;5068686;28;20044;-61
2021/12/12 06:06:35;;;;;;;7.75;5.07;;;9.90;99.30;;;;;;5073857;28;20112;-61
2021/12/12 06:09:02;;;;;;;7.38;4.57;;;;;;;;;;5067016;28;20039;-60
2021/12/12 06:11:29;;;;;;;8.73;4.65;;;10.10;99.90;;;;;;5074970;28;20036;-61
2021/12/12 06:13:55;;;;;;;8.00;4.68;;;9.80;99.90;;;;;;5075421;28;20045;-60
2021/12/12 06:16:21;;;;;;;8.90;4.80;;;9.90;99.90;;;;;;5057934;28;20047;-60
2021/12/12 06:19:00;;;;;;;8.20;4.53;;;10.00;99.90;;;;;;5056690;28;20036;-60
2021/12/12 06:21:26;;;;;;;8.57;4.90;;;10.10;99.90;;;;;;5075456;28;20036;-61
2021/12/12 06:23:52;;;;;;;8.10;4.60;;;;;;;;;;5056686;28;20055;-61
2021/12/12 06:26:18;;;;;;;8.60;4.57;;;;;;;;;;5059235;28;20040;-60
2021/12/12 06:28:44;;;;;;;6.65;4.07;;;10.00;99.90;;;;;;5074486;28;20051;-60
2021/12/12 06:31:11;;;;;;;7.28;4.00;;;10.00;99.90;;;;;;5073996;28;20037;-61
2021/12/12 06:33:38;;;;;;;7.43;4.03;;;9.70;99.90;;;;;;5074208;28;20124;-61
2021/12/12 06:36:10;;;;;;;6.03;3.47;;;10.30;99.90;;;;;;5074999;28;20048;-61
2021/12/12 06:38:37;;;;;;;6.20;4.00;;;10.10;99.40;;;;;;5074219;28;20057;-61
2021/12/12 06:41:03;;;;;;;9.73;3.90;;;9.90;99.70;;;;;;5056863;28;20111;-60
2021/12/12 06:43:29;;;;;;;7.28;3.75;;;10.10;99.90;;;;;;5073588;28;20043;-60
2021/12/12 06:45:55;;;;;;;5.72;3.72;;;10.10;99.90;;;;;;5074038;28;20040;-61
2021/12/12 06:48:21;;;;;;;6.82;3.85;;;10.20;99.90;;;;;;5072919;28;20044;-61
2021/12/12 06:50:50;;;;;;;7.15;3.72;;;10.10;99.90;;;;;;5074251;28;20486;-60
2021/12/12 06:53:17;;;;;;;6.30;3.58;;;;;;;;;;5074152;28;20104;-60
2021/12/12 06:55:45;;;;;;;6.80;3.90;;;9.70;99.90;;;;;;5072863;28;20055;-61
2021/12/12 06:58:12;;;;;;;6.93;3.50;;;10.10;99.90;;;;;;5073703;28;20036;-60
2021/12/12 07:00:39;;;;;;;5.35;3.33;;;;;;;;;;5074148;28;20045;-65
2021/12/12 07:03:05;;;;;;;7.15;3.10;;;;;;;;;;5073675;28;20059;-63
2021/12/12 07:05:31;;;;;;;6.18;3.30;;;10.20;99.90;;;;;;5074218;28;20040;-61
2021/12/12 07:07:57;;;;;;;5.70;3.30;;;10.20;99.90;;;;;;5073011;28;20048;-61
2021/12/12 07:10:24;;;;;;;5.45;3.30;;;10.10;99.90;;;;;;5074016;28;20387;-61
2021/12/12 07:12:55;;;;;;;5.60;2.90;;;10.30;99.90;;;;;;5073873;28;20051;-60
2021/12/12 07:15:25;;;;;;;5.88;3.33;;;10.20;99.90;;;;;;5073022;28;20137;-60
2021/12/12 07:17:55;;;;;;;5.65;3.38;;;10.10;99.90;;;;;;5073705;28;20040;-60
2021/12/12 07:20:21;;;;;;;4.95;3.25;;;10.10;99.90;;;;;;5073936;28;20044;-61
2021/12/12 07:22:47;;;;;;;5.68;3.30;;;;;;;;;;5055773;28;20041;-61
2021/12/12 07:25:13;;;;;;;5.15;2.70;;;10.20;99.90;;;;;;5072909;28;20047;-61
2021/12/12 07:27:39;;;;;;;4.75;2.65;;;10.00;99.80;;;;;;5072845;28;20044;-60
2021/12/12 07:30:06;;;;;;;5.88;3.10;;;10.10;99.90;;;;;;5054303;28;20052;-61
2021/12/12 07:32:32;;;;;;;5.32;2.95;;;10.30;99.90;;;;;;5073571;28;20452;-60
2021/12/12 07:34:58;;;;;;;5.60;2.97;;;10.20;99.90;;;;;;5070412;28;20044;-61
2021/12/12 07:37:24;;;;;;;4.45;2.42;;;10.30;99.90;;;;;;5072697;28;20032;-60
2021/12/12 07:39:50;;;;;;;5.15;2.65;;;;;;;;;;5072629;28;20505;-64
2021/12/12 07:42:16;;;;;;;5.10;2.85;;;10.30;99.90;;;;;;5073542;28;20043;-61
2021/12/12 07:44:43;;;;;;;4.25;2.55;;;10.20;99.90;;;;;;5073060;28;20585;-61
2021/12/12 07:47:10;;;;;;;5.05;2.75;;;10.30;99.90;;;;;;5070433;28;20056;-61
2021/12/12 07:49:37;;;;;;;4.70;2.83;;;;;;;;;;5073639;28;20434;-61
2021/12/12 07:52:05;;;;;;;4.45;2.50;;;9.80;99.70;;;;;;5073203;28;20167;-62
2021/12/12 07:54:31;;;;;;;4.45;2.70;;;10.30;99.90;;;;;;5073632;28;20102;-60
2021/12/12 07:56:57;;;;;;;4.75;2.90;;;10.40;99.90;;;;;;5072226;28;20190;-60
2021/12/12 07:59:23;;;;;;;5.00;2.80;;;10.60;99.90;;;;;;5055897;28;20390;-61
2021/12/12 08:01:50;;;;;;;4.05;2.45;;;10.30;99.90;;;;;;5072233;28;20041;-61
2021/12/12 08:04:16;;;;;;;4.35;2.65;;;10.40;99.90;;;;;;5072257;28;20045;-61
2021/12/12 08:06:42;;;;;;;5.47;2.67;;;10.30;99.90;;;;;;5073415;28;20048;-61
2021/12/12 08:09:08;;;;;;;4.78;2.75;;;10.30;99.90;;;;;;5072763;28;20044;-61
2021/12/12 08:11:35;;;;;;;4.88;2.65;;;10.40;99.90;;;;;;5073080;28;20051;-61
2021/12/12 08:14:03;;;;;;;4.60;2.50;;;10.20;99.90;;;;;;5072391;28;20125;-60
2021/12/12 08:16:29;;;;;;;5.85;2.50;;;10.70;99.90;;;;;;5072612;28;20141;-60
2021/12/12 08:18:56;;;;;;;5.50;2.45;;;;;;;;;;5055363;28;20124;-64
2021/12/12 08:21:22;;;;;;;4.13;2.40;;;10.10;99.90;;;;;;5071421;28;20087;-61
2021/12/12 08:23:48;;;;;;;4.30;2.50;;;10.40;99.90;;;;;;5055487;28;20068;-61
2021/12/12 08:26:13;;;;;;;5.05;2.53;;;10.10;99.90;;;;;;5071093;28;20131;-61
2021/12/12 08:28:40;;;;;;;5.22;2.63;;;10.40;99.90;;;;;;5071369;28;20050;-61
2021/12/12 08:31:06;;;;;;;4.53;2.50;;;;;;;;;;5072796;28;20128;-61
2021/12/12 08:33:33;;;;;;;4.32;2.50;;;10.40;99.90;;;;;;5072189;28;20041;-63
2021/12/12 08:35:59;;;;;;;5.00;2.47;;;10.50;99.90;;;;;;5072908;28;20048;-62
2021/12/12 08:38:24;;;;;;;4.28;2.53;;;10.40;99.90;;;;;;5072677;28;20041;-62
2021/12/12 08:40:53;;;;;;;5.53;2.40;;;10.40;99.90;;;;;;5071551;28;20401;-62
2021/12/12 08:43:20;;;;;;;4.60;2.30;;;10.40;99.90;;;;;;5072605;28;20044;-60
2021/12/12 08:45:52;;;;;;;4.65;2.58;;;10.60;99.90;;;;;;5072263;28;20072;-61
2021/12/12 08:48:18;;;;;;;4.80;2.50;;;10.80;99.90;;;;;;5071709;28;20406;-61
2021/12/12 08:50:46;;;;;;;4.50;2.40;;;10.40;99.90;;;;;;5072280;28;20045;-62
2021/12/12 08:53:13;;;;;;;4.35;2.55;;;;;;;;;;5072985;28;20048;-65
2021/12/12 08:55:42;;;;;;;5.18;2.95;;;10.30;99.90;;;;;;5064060;28;20036;-62
2021/12/12 08:58:14;;;;;;;5.05;2.55;;;10.50;99.90;;;;;;5072665;28;20068;-61
2021/12/12 09:01:04;;;;;;;4.78;2.53;;;10.40;99.60;;;;;;5070934;28;20486;-63
2021/12/12 09:03:32;;;;;;;4.40;2.28;;;10.40;99.90;;;;;;5071281;28;20045;-62
2021/12/12 09:05:58;;;;;;;4.82;2.50;;;10.50;99.90;;;;;;5054329;28;20498;-62
2021/12/12 09:08:31;;;;;;;4.30;2.55;;;10.40;99.50;;;;;;5038078;28;20051;-63
2021/12/12 09:11:16;;;;;;;4.43;2.47;;;10.50;99.90;;;;;;5070111;28;20478;-62
2021/12/12 09:13:50;;;;;;;4.00;2.40;;;;;;;;;;5071475;28;20048;-62
2021/12/12 09:16:23;;;;;;;4.75;2.75;;;10.60;99.90;;;;;;5071414;28;20044;-63
2021/12/12 09:18:54;;;;;;;4.07;2.38;;;10.40;99.90;;;;;;5070899;28;20044;-63
2021/12/12 09:21:50;;;;;;;6.47;2.92;;;10.50;99.60;;;;;;5071245;28;20037;-63
2021/12/12 09:24:30;;;;;;;4.53;2.60;;;10.40;99.90;;;;;;5067505;28;20048;-62
2021/12/12 09:27:01;;;;;;;5.03;2.78;;;10.60;99.90;;;;;;5072669;28;20040;-62
2021/12/12 09:29:33;;;;;;;5.75;2.70;;;10.60;99.90;;;;;;5070857;28;20040;-62
2021/12/12 09:32:09;;;;;;;4.47;2.63;;;10.50;99.90;;;;;;5071325;28;20029;-62
2021/12/12 09:34:53;;;;;;;5.05;2.88;;;10.70;99.90;;;;;;5070911;28;20094;-62
2021/12/12 09:38:07;;;;;;;5.75;2.95;;;10.60;99.90;;;;;;5071811;28;20102;-62
2021/12/12 09:41:17;;;;;;;5.25;2.85;;;10.60;99.80;;;;;;4991647;28;20062;-62
2021/12/12 09:44:03;;;;;;;4.97;2.95;;;10.50;99.60;;;;;;4993873;28;20057;-62
2021/12/12 09:47:12;;;;;;;4.80;2.63;;;10.60;99.90;;;;;;5010003;28;20046;-63
2021/12/12 09:53:17;;;;;;;5.13;2.95;;;10.80;99.90;;;;;;4990538;28;20125;-61
2021/12/12 09:56:12;;;;;;;4.90;3.00;;;10.60;99.80;;;;;;4995449;28;20479;-61
2021/12/12 09:58:46;;;;;;;5.28;3.10;;;10.60;99.90;;;;;;5008736;28;20092;-62
2021/12/12 10:01:48;;;;;;;5.28;3.13;;;10.60;99.90;;;;;;4997171;28;20050;-61
2021/12/12 10:04:27;;;;;;;5.18;3.17;;;10.90;99.80;;;;;;4990032;28;20050;-62
2021/12/12 10:07:10;;;;;;;5.75;3.25;;;10.60;99.90;;;;;;5013447;28;20045;-61
2021/12/12 10:09:52;;;;;;;5.72;3.50;;;10.90;99.90;;;;;;5013752;28;20129;-62
2021/12/12 10:12:26;;;;;;;5.43;3.40;;;10.20;99.90;;;;;;5012908;28;20100;-61
2021/12/12 10:14:58;;;;;;;5.68;3.25;;;10.70;99.80;;;;;;5016443;28;20050;-60
2021/12/12 10:18:13;;;;;;;5.70;3.65;;;10.60;99.90;;;;;;5054723;28;20083;-60
2021/12/12 10:20:42;;;;;;;5.28;3.05;;;;;;;;;;5054684;28;20053;-61
2021/12/12 10:23:26;;;;;;;6.38;3.40;;;10.90;99.90;;;;;;5029393;28;20490;-61
2021/12/12 10:25:59;;;;;;;5.30;3.42;;;10.80;99.90;;;;;;5050749;28;20312;-60
2021/12/12 10:28:32;;;;;;;5.68;3.25;;;10.90;99.90;;;;;;5036707;28;20119;-60
2021/12/12 10:31:16;;;;;;;5.72;3.25;;;10.90;99.90;;;;;;5027758;28;20205;-60
2021/12/12 10:34:02;;;;;;;5.53;3.42;;;10.70;99.90;;;;;;5033529;28;20049;-61
2021/12/12 10:36:34;;;;;;;6.40;3.35;;;;;;;;;;5051565;28;20049;-61
2021/12/12 10:39:23;;;;;;;5.45;3.42;;;10.90;99.90;;;;;;5053833;28;20037;-61
2021/12/12 10:41:54;;;;;;;6.32;4.15;;;10.90;99.90;;;;;;5035280;28;20114;-65
2021/12/12 10:44:21;;;;;;;6.57;3.75;;;;;;;;;;5054047;28;20400;-60
2021/12/12 10:46:50;;;;;;;6.35;4.13;;;11.00;99.90;;;;;;5052571;28;20041;-62
2021/12/12 10:49:22;;;;;;;5.85;3.70;;;10.80;99.90;;;;;;5056939;28;20051;-61
2021/12/12 10:51:49;;;;;;;6.00;3.85;;;;;;;;;;5056364;28;20075;-62
2021/12/12 10:54:33;;;;;;;5.65;3.60;;;11.30;99.90;;;;;;5071773;28;20482;-61
2021/12/12 10:57:04;;;;;;;6.50;4.07;;;;;;;;;;5074056;28;20052;-61
2021/12/12 10:59:40;;;;;;;6.82;4.53;;;;;;;;;;5050425;28;20049;-62
2021/12/12 11:02:08;;;;;;;7.50;4.03;;;10.90;99.90;;;;;;5046499;28;20086;-61
2021/12/12 11:04:39;;;;;;;6.55;4.20;;;10.90;99.90;;;;;;5072343;28;20452;-60
2021/12/12 11:07:07;;;;;;;7.28;4.55;;;;;;;;;;5072287;28;20538;-60
2021/12/12 11:09:34;;;;;;;7.10;4.80;;;;;;;;;;5069781;28;20041;-61
2021/12/12 11:12:11;;;;;;;8.05;4.68;;;11.00;99.90;;;;;;5071982;28;20036;-60
2021/12/12 11:14:39;;;;;;;8.20;5.03;;;;;;;;;;5071475;28;20041;-60
2021/12/12 11:17:09;;;;;;;7.47;4.53;;;;;;;;;;5073020;28;20048;-60
2021/12/12 11:20:07;;;;;;;7.55;5.05;;;10.90;99.90;;;;;;5054218;28;20052;-61
2021/12/12 11:22:45;;;;;;;8.23;5.10;;;10.70;99.90;;;;;;5072203;28;20049;-61
2021/12/12 11:25:36;;;;;;;7.68;4.75;;;11.30;99.90;;;;;;5071353;28;20097;-60
2021/12/12 11:28:35;;;;;;;9.18;5.10;;;;;;;;;;5072799;28;20045;-61
2021/12/12 11:31:08;;;;;;;7.53;4.85;;;11.30;99.90;;;;;;5045287;28;20449;-61
2021/12/12 11:33:34;;;;;;;6.97;4.73;;;11.20;99.90;;;;;;5033405;28;20196;-61
2021/12/12 11:36:00;;;;;;;8.82;5.10;;;;;;;;;;5034218;28;20372;-60
2021/12/12 11:38:41;;;;;;;8.75;5.18;;;11.30;99.90;;;;;;5050073;28;20033;-60
2021/12/12 11:41:17;;;;;;;8.48;5.20;;;;;;;;;;5050467;28;20067;-61
2021/12/12 11:43:48;;;;;;;7.82;5.20;;;;;;;;;;5042989;28;20045;-61
2021/12/12 11:46:18;;;;;;;8.50;5.50;;;11.30;99.90;;;;;;5050181;28;20044;-61
2021/12/12 11:49:09;;;;;;;8.32;5.47;;;;;;;;;;5050248;28;20479;-62
2021/12/12 11:51:43;;;;;;;8.05;5.10;;;11.20;99.90;;;;;;5010381;28;20050;-66
2021/12/12 11:54:32;;;;;;;7.85;4.80;;;11.30;99.90;;;;;;5010549;28;20499;-62
2021/12/12 11:57:04;;;;;;;8.55;5.43;;;;;;;;;;5010724;28;20049;-61
2021/12/12 11:59:41;;;;;;;7.55;5.25;;;11.30;99.90;;;;;;5010224;28;20046;-61
2021/12/12 12:02:29;;;;;;;8.73;5.18;;;11.20;99.90;;;;;;5010384;28;20041;-61
2021/12/12 12:05:23;;;;;;;8.13;5.10;;;11.60;99.90;;;;;;5006907;28;20403;-67
2021/12/12 12:08:08;;;;;;;7.78;5.13;;;;;;;;;;4970370;28;20042;-68
2021/12/12 12:11:17;;;;;;;8.02;5.15;;;11.60;99.90;;;;;;4986987;28;20076;-63
2021/12/12 12:14:22;;;;;;;8.68;5.10;;;;;;;;;;4988868;28;20053;-61
2021/12/12 12:16:49;;;;;;;8.00;5.10;;;11.40;99.90;;;;;;4930814;29;20058;-60
2021/12/12 12:19:25;;;;;;;8.20;5.28;;;;;;;;;;4931674;29;20118;-66
2021/12/12 12:21:57;;;;;;;8.50;5.10;;;;;;;;;;4932538;29;20051;-65
2021/12/12 12:24:26;;;;;;;7.72;5.00;;;;;;;;;;4932355;29;20095;-62
2021/12/12 12:27:05;;;;;;;7.68;5.13;;;11.60;99.90;;;;;;4932491;29;20052;-61
2021/12/12 12:29:31;;;;;;;8.23;5.18;;;11.50;99.90;;;;;;4965013;28;20429;-67
2021/12/12 12:32:15;;;;;;;7.90;4.82;;;;;;;;;;4970744;28;20038;-67
2021/12/12 12:35:09;;;;;;;7.50;5.05;;;11.40;99.90;;;;;;4962865;28;20061;-60
2021/12/12 12:38:10;;;;;;;8.85;4.90;;;;;;;;;;4952233;29;20099;-60
2021/12/12 12:40:54;;;;;;;7.88;4.65;;;;;;;;;;4963193;28;20062;-60
2021/12/12 12:43:45;;;;;;;8.35;5.15;;;11.50;99.90;;;;;;4969577;28;20146;-63
2021/12/12 12:46:26;;;;;;;6.57;4.28;;;;;;;;;;4971003;28;20038;-67
2021/12/12 12:49:25;;;;;;;7.05;4.82;;;11.30;99.90;;;;;;5069321;28;20063;-61
2021/12/12 12:52:01;;;;;;;7.35;4.78;;;;;;;;;;5072721;28;20528;-60
2021/12/12 12:54:31;;;;;;;7.35;4.53;;;11.70;99.90;;;;;;5072540;28;20052;-61
2021/12/12 12:57:20;;;;;;;7.82;4.85;;;11.40;99.90;;;;;;5071567;28;20055;-61
2021/12/12 13:00:06;;;;;;;8.43;4.45;;;11.60;99.90;;;;;;5072055;28;20123;-66
2021/12/12 13:02:59;;;;;;;7.00;4.50;;;11.60;99.90;;;;;;5072430;28;20516;-67
2021/12/12 13:05:49;;;;;;;6.95;4.53;;;;;;;;;;5071877;28;20071;-67
2021/12/12 13:08:47;;;;;;;7.28;4.50;;;;;;;;;;5071508;28;20044;-67
2021/12/12 13:11:41;;;;;;;7.57;4.57;;;11.70;99.90;;;;;;5029591;28;20559;-67
2021/12/12 13:14:26;;;;;;;8.55;4.72;;;;;;;;;;5029732;28;20053;-61
2021/12/12 13:17:11;;;;;;;7.13;3.97;;;11.70;99.90;;;;;;5024475;28;20530;-66
2021/12/12 13:19:42;;;;;;;6.93;4.55;;;11.60;99.90;;;;;;5016618;28;20042;-66
2021/12/12 13:22:20;;;;;;;6.60;4.13;;;11.70;99.90;;;;;;5010148;28;20617;-60
2021/12/12 13:25:18;;;;;;;8.35;4.47;;;11.60;99.90;;;;;;4993800;28;20054;-61
2021/12/12 13:28:16;;;;;;;7.68;4.90;;;;;;;;;;5010539;28;20416;-67
2021/12/12 13:31:06;;;;;;;7.93;4.35;;;11.60;99.90;;;;;;5033520;28;20053;-66
2021/12/12 13:33:50;;;;;;;6.60;4.50;;;;;;;;;;5033424;28;20057;-67
2021/12/12 13:36:27;;;;;;;6.28;3.67;;;11.50;99.90;;;;;;5033653;28;20497;-67
2021/12/12 13:39:09;;;;;;;6.18;3.80;;;11.90;99.90;;;;;;5016719;28;20048;-66
2021/12/12 13:41:53;;;;;;;6.20;4.13;;;11.90;99.90;;;;;;5033551;28;20056;-67
2021/12/12 13:44:38;;;;;;;6.22;3.78;;;;;;;;;;5033274;28;20053;-67
2021/12/12 13:47:42;;;;;;;6.15;3.80;;;11.50;99.90;;;;;;5058677;28;20056;-61
2021/12/12 13:50:11;;;;;;;;;;;11.80;99.90;;;;;;4997928;28;20046;-61
2021/12/12 13:52:54;;;;;;;8.38;4.28;;;11.80;99.90;;;;;;4993925;28;19921;-61